Time;durP1;ratioP1;P1;durP2;ratioP2;P2;SDS_P1;SDS_P2;PMS_P1;PMS_P2;Temp;Humidity;BMP_temperature;BMP_pressure;BME280_temperature;BME280_humidity;BME280_pressure;Samples;Min_cycle;Max_cycle;Signal;HPM_P1;HPM_P2
2022/07/21 00:01:31;;;;;;;7.63;5.25;;;18.20;99.90;;;;;;5074437;28;20025;-61
2022/07/21 00:03:57;;;;;;;8.88;5.80;;;18.20;99.90;;;;;;5074768;28;20032;-61
2022/07/21 00:06:23;;;;;;;7.63;4.80;;;18.20;99.90;;;;;;5074376;28;20029;-61
2022/07/21 00:08:48;;;;;;;6.72;4.90;;;18.20;99.90;;;;;;5074386;28;20103;-61
2022/07/21 00:11:14;;;;;;;7.97;5.78;;;18.20;99.90;;;;;;5074531;28;20024;-61
2022/07/21 00:13:40;;;;;;;7.57;5.70;;;18.20;99.90;;;;;;5074339;28;20435;-62
2022/07/21 00:16:06;;;;;;;7.03;5.60;;;18.10;99.90;;;;;;5074335;28;20385;-62
2022/07/21 00:18:32;;;;;;;8.43;5.47;;;18.20;99.90;;;;;;5074368;28;20262;-62
2022/07/21 00:20:58;;;;;;;7.18;5.90;;;18.10;99.90;;;;;;5074416;28;20203;-62
2022/07/21 00:23:24;;;;;;;8.40;6.20;;;18.00;99.90;;;;;;5074241;28;20031;-62
2022/07/21 00:25:50;;;;;;;7.88;5.88;;;18.00;99.90;;;;;;5074175;28;20032;-62
2022/07/21 00:28:16;;;;;;;8.85;6.03;;;18.00;99.90;;;;;;5074051;28;20036;-62
2022/07/21 00:30:42;;;;;;;7.78;6.30;;;18.00;99.90;;;;;;5072871;28;20040;-61
2022/07/21 00:33:08;;;;;;;8.02;6.50;;;17.90;99.90;;;;;;5074070;28;20021;-61
2022/07/21 00:35:33;;;;;;;7.68;6.00;;;17.90;99.90;;;;;;5074047;28;20051;-61
2022/07/21 00:37:59;;;;;;;10.27;6.53;;;17.90;99.90;;;;;;5074311;28;20384;-62
2022/07/21 00:40:25;;;;;;;9.60;6.80;;;17.90;99.90;;;;;;5073968;28;20029;-61
2022/07/21 00:42:50;;;;;;;8.68;6.78;;;17.80;99.90;;;;;;5074279;28;20028;-61
2022/07/21 00:45:16;;;;;;;11.65;7.13;;;17.70;99.90;;;;;;5073960;28;20029;-61
2022/07/21 00:47:42;;;;;;;11.07;6.88;;;17.70;99.90;;;;;;5074442;28;20051;-61
2022/07/21 00:50:14;;;;;;;11.98;6.95;;;17.60;99.90;;;;;;5073927;28;20029;-61
2022/07/21 00:52:40;;;;;;;;;;;17.70;99.90;;;;;;5074108;28;20028;-64
2022/07/21 00:55:09;;;;;;;9.60;6.97;;;17.70;99.90;;;;;;5073214;28;19915;-61
2022/07/21 00:57:35;;;;;;;10.35;7.30;;;17.70;99.90;;;;;;5073174;28;20045;-61
2022/07/21 01:00:02;;;;;;;11.20;7.93;;;17.70;99.90;;;;;;5073594;28;20085;-61
2022/07/21 01:02:30;;;;;;;8.00;7.18;;;17.70;99.90;;;;;;5073415;28;20021;-60
2022/07/21 01:04:55;;;;;;;10.30;7.72;;;17.70;99.90;;;;;;5072081;28;20031;-60
2022/07/21 01:07:22;;;;;;;11.10;8.18;;;17.80;99.90;;;;;;5073077;28;20028;-61
2022/07/21 01:09:49;;;;;;;8.57;7.25;;;17.80;99.90;;;;;;5072913;28;20085;-61
2022/07/21 01:12:15;;;;;;;10.35;7.30;;;17.80;99.90;;;;;;5072024;28;20033;-60
2022/07/21 01:14:40;;;;;;;10.73;8.13;;;17.80;99.90;;;;;;5072905;28;20393;-61
2022/07/21 01:17:06;;;;;;;9.15;7.30;;;17.80;99.90;;;;;;5073090;28;20028;-61
2022/07/21 01:19:32;;;;;;;10.15;7.40;;;17.80;99.90;;;;;;5073600;28;20020;-61
2022/07/21 01:21:58;;;;;;;11.10;8.02;;;17.90;99.90;;;;;;5071505;28;20374;-60
2022/07/21 01:24:23;;;;;;;13.60;8.88;;;17.90;99.90;;;;;;5073271;28;20043;-61
2022/07/21 01:26:52;;;;;;;12.25;8.90;;;17.90;99.90;;;;;;5072784;28;20413;-61
2022/07/21 01:29:18;;;;;;;11.32;8.98;;;17.80;99.90;;;;;;5073163;28;20020;-61
2022/07/21 01:31:46;;;;;;;13.65;8.88;;;17.90;99.90;;;;;;5072764;28;20513;-61
2022/07/21 01:34:12;;;;;;;11.98;9.15;;;17.80;99.90;;;;;;5072875;28;20043;-61
2022/07/21 01:36:38;;;;;;;13.75;9.10;;;17.80;99.90;;;;;;5072625;28;20099;-61
2022/07/21 01:41:49;;;;;;;12.20;9.32;;;17.60;99.90;;;;;;5072757;28;20082;-61
2022/07/21 01:44:15;;;;;;;13.90;9.73;;;17.70;99.90;;;;;;5072535;28;20029;-61
2022/07/21 01:46:44;;;;;;;12.73;9.73;;;17.60;99.90;;;;;;5072728;28;20107;-62
2022/07/21 01:49:12;;;;;;;14.40;9.65;;;17.60;99.90;;;;;;5073213;28;20025;-62
2022/07/21 01:51:38;;;;;;;11.07;9.85;;;17.60;99.90;;;;;;5072521;28;20081;-61
2022/07/21 01:54:04;;;;;;;12.50;9.80;;;17.50;99.90;;;;;;5072634;28;20025;-61
2022/07/21 01:56:30;;;;;;;13.43;9.20;;;17.50;99.90;;;;;;5072330;28;20021;-61
2022/07/21 01:58:57;;;;;;;14.07;9.95;;;17.60;99.90;;;;;;5072460;28;20052;-60
2022/07/21 02:01:28;;;;;;;12.80;9.65;;;17.60;99.90;;;;;;5072251;28;20043;-60
2022/07/21 02:03:55;;;;;;;12.05;9.68;;;17.60;99.90;;;;;;5072563;28;20047;-61
2022/07/21 02:06:21;;;;;;;15.05;9.95;;;17.60;99.90;;;;;;5072101;28;20495;-61
2022/07/21 02:08:47;;;;;;;15.18;10.48;;;17.60;99.90;;;;;;5070826;28;20024;-61
2022/07/21 02:11:13;;;;;;;18.33;10.68;;;17.60;99.90;;;;;;5070929;28;20029;-61
2022/07/21 02:13:39;;;;;;;12.75;9.82;;;17.60;99.90;;;;;;5072031;28;20024;-61
2022/07/21 02:16:06;;;;;;;14.23;9.85;;;17.70;99.90;;;;;;5070474;28;20028;-61
2022/07/21 02:18:32;;;;;;;18.50;10.70;;;17.50;99.90;;;;;;5071934;28;20024;-61
2022/07/21 02:20:57;;;;;;;12.90;9.63;;;17.60;99.90;;;;;;5070898;28;20074;-61
2022/07/21 02:23:24;;;;;;;15.63;10.68;;;17.50;99.90;;;;;;5071722;28;20469;-61
2022/07/21 02:25:52;;;;;;;15.73;10.85;;;17.50;99.90;;;;;;5071688;28;20079;-62
2022/07/21 02:28:21;;;;;;;13.20;11.43;;;17.50;99.90;;;;;;5070442;28;20093;-61
2022/07/21 02:30:47;;;;;;;15.38;11.50;;;17.50;99.90;;;;;;5071770;28;20111;-62
2022/07/21 02:33:14;;;;;;;14.50;11.43;;;17.50;99.90;;;;;;5071511;28;20107;-61
2022/07/21 02:35:40;;;;;;;14.32;11.05;;;17.50;99.90;;;;;;5071564;28;20477;-61
2022/07/21 02:38:06;;;;;;;16.30;11.48;;;17.40;99.90;;;;;;5071895;28;20035;-61
2022/07/21 02:40:32;;;;;;;15.65;11.57;;;17.40;99.90;;;;;;5071593;28;20032;-62
2022/07/21 02:42:58;;;;;;;18.80;12.50;;;17.50;99.90;;;;;;5071357;28;20082;-61
2022/07/21 02:45:24;;;;;;;13.48;10.88;;;17.50;99.90;;;;;;5071650;28;20104;-61
2022/07/21 02:48:03;;;;;;;19.55;11.55;;;17.60;99.90;;;;;;5071692;28;20494;-61
2022/07/21 02:50:31;;;;;;;14.77;11.23;;;17.60;99.90;;;;;;5071520;28;20028;-61
2022/07/21 02:53:08;;;;;;;17.00;11.05;;;17.60;99.90;;;;;;5070046;28;20052;-62
2022/07/21 02:55:35;;;;;;;16.83;12.13;;;17.70;99.90;;;;;;5071331;28;20063;-62
2022/07/21 02:58:17;;;;;;;18.20;11.77;;;17.70;99.90;;;;;;5069965;28;20051;-62
2022/07/21 03:00:47;;;;;;;19.60;12.70;;;17.70;99.90;;;;;;5071280;28;20489;-61
2022/07/21 03:03:14;;;;;;;19.30;12.15;;;17.60;99.90;;;;;;5071314;28;20120;-61
2022/07/21 03:05:40;;;;;;;20.15;12.63;;;17.60;99.90;;;;;;5071287;28;20393;-61
2022/07/21 03:08:06;;;;;;;16.42;12.45;;;17.60;99.90;;;;;;5071227;28;20017;-61
2022/07/21 03:10:32;;;;;;;16.48;12.50;;;17.60;99.90;;;;;;5070965;28;20035;-61
2022/07/21 03:12:58;;;;;;;22.80;13.52;;;17.60;99.90;;;;;;5071045;28;20020;-62
2022/07/21 03:15:25;;;;;;;17.60;12.55;;;17.60;99.90;;;;;;5071204;28;20019;-62
2022/07/21 03:17:51;;;;;;;20.65;13.77;;;17.60;99.90;;;;;;5071580;28;20327;-61
2022/07/21 03:20:17;;;;;;;18.08;13.88;;;17.60;99.90;;;;;;5071118;28;20032;-61
2022/07/21 03:22:43;;;;;;;22.70;14.35;;;17.60;99.90;;;;;;5071214;28;20463;-61
2022/07/21 03:25:08;;;;;;;20.08;15.27;;;17.50;99.90;;;;;;5069619;28;20477;-61
2022/07/21 03:27:36;;;;;;;20.92;14.98;;;17.60;99.90;;;;;;5070964;28;20085;-61
2022/07/21 03:30:09;;;;;;;26.40;15.88;;;17.60;99.90;;;;;;5053400;28;20112;-61
2022/07/21 03:32:36;;;;;;;19.85;14.77;;;17.60;99.90;;;;;;5074123;28;20024;-61
2022/07/21 03:35:02;;;;;;;24.20;16.23;;;17.70;99.90;;;;;;5075057;28;20044;-61
2022/07/21 03:37:28;;;;;;;20.52;15.35;;;17.80;99.90;;;;;;5074855;28;20031;-61
2022/07/21 03:39:54;;;;;;;24.90;16.25;;;17.80;99.90;;;;;;5075371;28;20028;-61
2022/07/21 03:42:20;;;;;;;23.45;16.13;;;17.90;99.90;;;;;;5074968;28;20423;-61
2022/07/21 03:44:45;;;;;;;26.70;17.00;;;17.90;99.90;;;;;;5074755;28;20082;-61
2022/07/21 03:47:11;;;;;;;19.95;16.60;;;17.80;99.90;;;;;;5074585;28;20070;-62
2022/07/21 03:49:37;;;;;;;24.08;17.17;;;17.80;99.90;;;;;;5073671;28;20036;-61
2022/07/21 03:52:03;;;;;;;23.70;17.15;;;17.80;99.90;;;;;;5074825;28;20419;-61
2022/07/21 03:54:28;;;;;;;29.15;18.52;;;17.80;99.90;;;;;;5074473;28;20099;-61
2022/07/21 03:56:54;;;;;;;26.75;18.60;;;17.80;99.90;;;;;;5074429;28;20159;-61
2022/07/21 03:59:20;;;;;;;26.17;18.73;;;17.80;99.90;;;;;;5074408;28;20098;-61
2022/07/21 04:01:45;;;;;;;33.28;20.17;;;17.80;99.90;;;;;;5074612;28;20025;-61
2022/07/21 04:04:11;;;;;;;25.30;19.23;;;17.80;99.90;;;;;;5074526;28;20020;-61
2022/07/21 04:06:37;;;;;;;29.35;21.17;;;17.80;99.90;;;;;;5074240;28;20028;-61
2022/07/21 04:09:03;;;;;;;29.08;20.83;;;17.90;99.90;;;;;;5074863;28;20036;-61
2022/07/21 04:11:30;;;;;;;31.80;20.70;;;17.90;99.90;;;;;;5074135;28;20024;-61
2022/07/21 04:13:56;;;;;;;36.38;21.55;;;17.90;99.90;;;;;;5074094;28;20017;-61
2022/07/21 04:16:21;;;;;;;28.90;22.00;;;17.90;99.90;;;;;;5074484;28;20377;-61
2022/07/21 04:18:47;;;;;;;32.92;21.77;;;17.90;99.90;;;;;;5073016;28;20035;-61
2022/07/21 04:21:12;;;;;;;30.67;21.52;;;17.90;99.90;;;;;;5074210;28;20555;-61
2022/07/21 04:23:38;;;;;;;30.25;22.33;;;17.80;99.90;;;;;;5073224;28;20024;-61
2022/07/21 04:26:03;;;;;;;31.15;23.10;;;17.80;99.90;;;;;;5074927;28;20070;-61
2022/07/21 04:28:29;;;;;;;37.67;23.58;;;17.70;99.90;;;;;;5074720;28;20473;-63
2022/07/21 04:30:55;;;;;;;30.98;22.50;;;17.70;99.90;;;;;;5072822;28;20036;-62
2022/07/21 04:33:20;;;;;;;35.92;23.75;;;17.70;99.90;;;;;;5073942;28;20025;-61
2022/07/21 04:35:46;;;;;;;35.55;22.95;;;17.70;99.90;;;;;;5073781;28;20468;-61
2022/07/21 04:38:12;;;;;;;28.60;22.75;;;17.60;99.90;;;;;;5073989;28;20016;-61
2022/07/21 04:40:38;;;;;;;37.75;24.75;;;17.60;99.90;;;;;;5073757;28;20036;-61
2022/07/21 04:43:03;;;;;;;36.75;25.77;;;17.50;99.90;;;;;;5072739;28;20036;-64
2022/07/21 04:45:29;;;;;;;41.50;25.73;;;17.60;99.90;;;;;;5073833;28;20028;-63
2022/07/21 04:47:55;;;;;;;40.13;25.13;;;17.50;99.90;;;;;;5073956;28;20040;-61
2022/07/21 04:50:23;;;;;;;35.38;25.92;;;17.50;99.90;;;;;;5073608;28;20028;-61
2022/07/21 04:52:49;;;;;;;38.83;25.00;;;17.50;99.90;;;;;;5072568;28;20041;-61
2022/07/21 04:55:16;;;;;;;38.45;26.60;;;17.50;99.90;;;;;;5072314;28;20063;-62
2022/07/21 04:57:45;;;;;;;36.33;25.35;;;17.50;99.90;;;;;;5073746;28;20033;-62
2022/07/21 05:00:13;;;;;;;40.05;25.63;;;17.50;99.90;;;;;;5073564;28;20036;-62
2022/07/21 05:02:39;;;;;;;36.75;26.13;;;17.50;99.90;;;;;;5073309;28;20043;-60
2022/07/21 05:05:06;;;;;;;39.10;27.15;;;17.50;99.90;;;;;;5073551;28;20029;-61
2022/07/21 05:07:32;;;;;;;41.17;27.90;;;17.50;99.90;;;;;;5072207;28;20032;-61
2022/07/21 05:09:58;;;;;;;39.22;27.48;;;17.50;99.90;;;;;;5073430;28;20397;-62
2022/07/21 05:12:25;;;;;;;39.00;27.73;;;17.50;99.90;;;;;;5072207;28;20120;-61
2022/07/21 05:14:51;;;;;;;37.60;27.23;;;17.50;99.90;;;;;;5073297;28;20028;-62
2022/07/21 05:17:17;;;;;;;40.10;28.30;;;17.50;99.90;;;;;;5073223;28;20389;-62
2022/07/21 05:19:45;;;;;;;44.00;29.17;;;17.50;99.90;;;;;;5073315;28;20485;-62
2022/07/21 05:22:10;;;;;;;44.45;29.80;;;17.60;99.90;;;;;;5072992;28;20146;-62
2022/07/21 05:24:36;;;;;;;47.05;28.52;;;17.60;99.90;;;;;;5071284;28;20123;-61
2022/07/21 05:27:02;;;;;;;41.58;30.08;;;17.60;99.90;;;;;;5072836;28;20024;-62
2022/07/21 05:29:28;;;;;;;42.65;30.27;;;17.60;99.90;;;;;;5072644;28;20031;-62
2022/07/21 05:31:53;;;;;;;43.30;30.30;;;17.60;99.90;;;;;;5071087;28;20039;-61
2022/07/21 05:34:19;;;;;;;44.97;29.83;;;17.60;99.90;;;;;;5072334;28;20016;-62
2022/07/21 05:36:44;;;;;;;43.53;30.67;;;17.50;99.90;;;;;;5070966;28;20043;-62
2022/07/21 05:39:10;;;;;;;43.80;29.92;;;17.60;99.90;;;;;;5072875;28;20040;-65
2022/07/21 05:41:35;;;;;;;46.22;30.85;;;17.50;99.90;;;;;;5071014;28;20370;-62
2022/07/21 05:44:01;;;;;;;48.70;32.30;;;17.50;99.90;;;;;;5072270;28;20024;-63
2022/07/21 05:46:27;;;;;;;45.22;33.20;;;17.50;99.90;;;;;;5072204;28;20028;-63
2022/07/21 05:48:54;;;;;;;45.28;32.97;;;17.60;99.90;;;;;;5072260;28;20085;-63
2022/07/21 05:51:20;;;;;;;47.08;33.92;;;17.50;99.90;;;;;;5072299;28;20044;-62
2022/07/21 05:53:46;;;;;;;46.58;33.85;;;17.60;99.90;;;;;;5071946;28;20021;-63
2022/07/21 05:56:12;;;;;;;52.58;36.30;;;17.60;99.90;;;;;;5072196;28;20060;-63
2022/07/21 05:58:38;;;;;;;59.22;38.28;;;17.60;99.90;;;;;;5070722;28;20044;-63
2022/07/21 06:01:12;;;;;;;61.85;38.65;;;17.60;99.90;;;;;;5072117;28;20028;-64
2022/07/21 06:03:45;;;;;;;62.63;38.90;;;17.70;99.90;;;;;;5070424;28;20042;-66
2022/07/21 06:06:13;;;;;;;60.72;39.55;;;17.70;99.90;;;;;;5070900;28;20024;-66
2022/07/21 06:08:40;;;;;;;70.25;42.38;;;17.60;99.90;;;;;;5070588;28;20070;-65
2022/07/21 06:11:08;;;;;;;69.72;41.88;;;17.60;99.90;;;;;;5071797;28;20488;-65
2022/07/21 06:13:33;;;;;;;67.03;41.70;;;17.70;99.90;;;;;;5071617;28;20032;-67
2022/07/21 06:15:59;;;;;;;65.55;42.75;;;17.70;99.90;;;;;;5071590;28;20028;-61
2022/07/21 06:18:25;;;;;;;69.82;42.38;;;17.70;99.90;;;;;;5072074;28;20467;-61
2022/07/21 06:20:51;;;;;;;72.32;45.03;;;17.70;99.90;;;;;;5071503;28;20511;-60
2022/07/21 06:23:17;;;;;;;76.20;43.38;;;17.80;99.90;;;;;;5071614;28;20029;-60
2022/07/21 06:25:43;;;;;;;72.28;43.97;;;17.90;99.90;;;;;;5071516;28;20280;-60
2022/07/21 06:28:09;;;;;;;73.35;44.88;;;17.90;99.90;;;;;;5070401;28;20028;-60
2022/07/21 06:30:35;;;;;;;81.53;43.63;;;18.00;99.90;;;;;;5071299;28;20024;-60
2022/07/21 06:33:00;;;;;;;75.05;43.15;;;18.10;99.90;;;;;;5071287;28;20025;-60
2022/07/21 06:35:26;;;;;;;68.72;42.97;;;18.10;99.90;;;;;;5071310;28;20021;-59
2022/07/21 06:37:51;;;;;;;74.22;42.90;;;18.10;99.90;;;;;;5071510;28;20031;-60
2022/07/21 06:40:17;;;;;;;74.10;43.40;;;18.10;99.90;;;;;;5071157;28;20032;-60
2022/07/21 06:42:43;;;;;;;73.18;41.55;;;18.10;99.90;;;;;;5071369;28;20050;-60
2022/07/21 06:45:09;;;;;;;86.35;49.20;;;18.20;99.90;;;;;;5071325;28;20028;-60
2022/07/21 06:47:34;;;;;;;75.55;45.90;;;18.30;99.90;;;;;;5071263;28;20043;-60
2022/07/21 06:50:02;;;;;;;81.53;48.53;;;18.20;99.90;;;;;;5071187;28;20530;-59
2022/07/21 06:52:33;;;;;;;79.60;47.50;;;18.30;99.90;;;;;;5069651;28;20028;-59
2022/07/21 06:54:58;;;;;;;86.03;48.78;;;18.30;99.90;;;;;;5071130;28;20060;-60
2022/07/21 06:57:24;;;;;;;80.85;46.60;;;18.40;99.90;;;;;;5071074;28;20520;-60
2022/07/21 06:59:50;;;;;;;78.25;46.35;;;18.40;99.90;;;;;;5071193;28;20037;-60
2022/07/21 07:02:16;;;;;;;72.88;45.35;;;18.40;99.90;;;;;;5070088;28;20039;-60
2022/07/21 07:04:43;;;;;;;72.35;45.25;;;18.30;99.90;;;;;;5071280;28;20025;-60
2022/07/21 07:07:09;;;;;;;71.22;45.63;;;18.30;99.90;;;;;;5070286;28;20397;-61
2022/07/21 07:09:34;;;;;;;70.43;44.85;;;18.40;99.90;;;;;;5071308;28;20481;-60
2022/07/21 07:12:03;;;;;;;77.22;45.53;;;18.40;99.90;;;;;;5071080;28;20040;-61
2022/07/21 07:14:33;;;;;;;67.00;43.38;;;18.50;99.90;;;;;;5071267;28;20423;-60
2022/07/21 07:17:00;;;;;;;61.92;40.92;;;18.50;99.90;;;;;;5071343;28;20090;-60
2022/07/21 07:19:26;;;;;;;55.85;38.95;;;18.40;99.90;;;;;;5070930;28;20028;-60
2022/07/21 07:21:52;;;;;;;62.05;41.70;;;18.50;99.90;;;;;;5070983;28;20090;-61
2022/07/21 07:24:18;;;;;;;60.38;41.10;;;18.50;99.90;;;;;;5071211;28;20424;-63
2022/07/21 07:26:44;;;;;;;58.10;38.22;;;18.50;99.90;;;;;;5070882;28;20064;-65
2022/07/21 07:29:09;;;;;;;53.00;37.03;;;18.50;99.90;;;;;;5071322;28;20107;-66
2022/07/21 07:31:35;;;;;;;54.97;38.13;;;18.50;99.90;;;;;;5070695;28;20035;-65
2022/07/21 07:34:01;;;;;;;47.40;35.10;;;18.60;99.90;;;;;;5070828;28;20037;-65
2022/07/21 07:36:28;;;;;;;40.45;30.77;;;18.60;99.90;;;;;;5070887;28;20017;-65
2022/07/21 07:38:55;;;;;;;47.15;33.33;;;18.60;99.90;;;;;;5070944;28;20037;-64
2022/07/21 07:41:22;;;;;;;44.30;32.67;;;18.60;99.90;;;;;;5070729;28;20040;-63
2022/07/21 07:43:49;;;;;;;53.03;35.78;;;18.50;99.90;;;;;;5070571;28;20082;-63
2022/07/21 07:46:15;;;;;;;52.72;33.80;;;18.40;99.90;;;;;;5070964;28;20058;-63
2022/07/21 07:48:41;;;;;;;46.92;34.05;;;18.50;99.90;;;;;;5070517;28;20025;-62
2022/07/21 07:51:11;;;;;;;54.22;35.15;;;18.50;99.90;;;;;;5070604;28;20516;-64
2022/07/21 07:53:38;;;;;;;45.05;31.42;;;18.60;99.90;;;;;;5070520;28;20017;-65
2022/07/21 07:56:04;;;;;;;42.75;31.15;;;18.60;99.90;;;;;;5070490;28;20448;-65
2022/07/21 07:58:30;;;;;;;38.63;28.75;;;18.60;99.90;;;;;;5070776;28;20047;-65
2022/07/21 08:00:55;;;;;;;33.63;27.60;;;18.70;99.90;;;;;;5070414;28;20024;-64
2022/07/21 08:03:23;;;;;;;34.15;26.52;;;18.70;99.90;;;;;;5070587;28;20557;-65
2022/07/21 08:05:49;;;;;;;37.25;24.88;;;18.80;99.90;;;;;;5070265;28;20028;-63
2022/07/21 08:08:16;;;;;;;28.20;23.25;;;18.80;99.90;;;;;;5070545;28;20094;-62
2022/07/21 08:10:45;;;;;;;29.60;20.23;;;18.70;99.90;;;;;;5070645;28;20488;-60
2022/07/21 08:13:12;;;;;;;26.70;19.60;;;18.60;99.90;;;;;;5070845;28;20473;-60
2022/07/21 08:15:38;;;;;;;23.23;18.95;;;18.60;99.90;;;;;;5070109;28;20505;-61
2022/07/21 08:18:05;;;;;;;25.75;20.55;;;18.50;99.90;;;;;;5071430;28;20078;-62
2022/07/21 08:20:31;;;;;;;26.90;20.50;;;18.50;99.90;;;;;;5073910;28;20036;-64
2022/07/21 08:22:57;;;;;;;25.30;19.42;;;18.60;99.90;;;;;;5073964;28;20033;-63
2022/07/21 08:25:22;;;;;;;24.90;18.60;;;18.70;99.90;;;;;;5072626;28;20086;-65
2022/07/21 08:27:48;;;;;;;20.33;16.45;;;18.80;99.90;;;;;;5074172;28;20029;-64
2022/07/21 08:30:14;;;;;;;19.85;15.82;;;18.70;99.90;;;;;;5074060;28;20030;-65
2022/07/21 08:32:40;;;;;;;18.33;14.30;;;18.70;99.90;;;;;;5073702;28;20036;-64
2022/07/21 08:35:08;;;;;;;17.58;14.15;;;18.70;99.90;;;;;;5074084;28;20017;-64
2022/07/21 08:37:35;;;;;;;16.35;12.93;;;18.70;99.90;;;;;;5074336;28;20112;-64
2022/07/21 08:40:03;;;;;;;16.95;13.55;;;18.70;99.90;;;;;;5074043;28;20477;-65
2022/07/21 08:42:29;;;;;;;18.38;13.45;;;18.70;99.90;;;;;;5073592;28;20074;-64
2022/07/21 08:44:55;;;;;;;16.27;13.13;;;18.70;99.90;;;;;;5073825;28;20412;-64
2022/07/21 08:47:21;;;;;;;15.38;11.80;;;18.70;99.90;;;;;;5073825;28;20036;-64
2022/07/21 08:49:47;;;;;;;13.70;11.35;;;18.60;99.90;;;;;;5073745;28;20024;-65
2022/07/21 08:52:13;;;;;;;14.00;10.98;;;18.60;99.90;;;;;;5074044;28;20059;-65
2022/07/21 08:54:38;;;;;;;12.25;10.60;;;18.50;99.90;;;;;;5073796;28;20020;-65
2022/07/21 08:57:04;;;;;;;16.42;10.85;;;18.50;99.90;;;;;;5073300;28;20426;-64
2022/07/21 08:59:30;;;;;;;13.40;10.75;;;18.40;99.90;;;;;;5073530;28;20115;-64
2022/07/21 09:01:56;;;;;;;14.35;11.10;;;18.50;99.90;;;;;;5073198;28;20072;-63
2022/07/21 09:04:27;;;;;;;16.83;11.05;;;18.60;99.90;;;;;;5073452;28;20103;-58
2022/07/21 09:06:57;;;;;;;19.83;12.00;;;18.50;99.90;;;;;;5073131;28;20032;-62
2022/07/21 09:09:24;;;;;;;17.27;11.55;;;18.60;99.90;;;;;;5072042;28;20344;-61
2022/07/21 09:11:50;;;;;;;16.95;12.02;;;18.70;99.90;;;;;;5071837;28;20546;-61
2022/07/21 09:14:21;;;;;;;15.45;11.98;;;18.70;99.90;;;;;;5072935;28;20024;-61
2022/07/21 09:16:52;;;;;;;15.98;11.52;;;18.80;99.90;;;;;;5073183;28;20473;-61
2022/07/21 09:19:19;;;;;;;16.67;12.07;;;18.80;99.90;;;;;;5073370;28;20049;-61
2022/07/21 09:21:45;;;;;;;16.13;12.23;;;18.80;99.90;;;;;;5073131;28;20496;-62
2022/07/21 09:24:12;;;;;;;14.02;10.05;;;18.80;99.90;;;;;;5072865;28;20107;-64
2022/07/21 09:27:05;;;;;;;15.00;10.93;;;18.80;99.90;;;;;;5072401;28;20032;-65
2022/07/21 09:29:33;;;;;;;;;;;18.90;99.90;;;;;;5073325;28;20024;-63
2022/07/21 09:32:25;;;;;;;13.73;9.32;;;19.00;99.90;;;;;;5072555;28;20355;-63
2022/07/21 09:34:59;;;;;;;12.20;8.02;;;19.00;99.90;;;;;;5072716;28;20024;-62
2022/07/21 09:37:25;;;;;;;12.43;8.05;;;19.00;99.90;;;;;;5073283;28;20099;-62
2022/07/21 09:39:54;;;;;;;9.85;8.43;;;19.00;99.90;;;;;;5072632;28;20142;-62
2022/07/21 09:42:27;;;;;;;9.48;7.43;;;19.20;99.90;;;;;;5072522;28;20032;-60
2022/07/21 09:45:14;;;;;;;13.30;9.13;;;19.10;99.90;;;;;;5072299;28;20036;-62
2022/07/21 09:47:42;;;;;;;14.07;7.97;;;19.30;99.90;;;;;;5072496;28;20392;-61
2022/07/21 09:50:12;;;;;;;11.82;7.57;;;19.30;99.90;;;;;;5072510;28;20457;-61
2022/07/21 09:52:40;;;;;;;13.07;8.00;;;19.20;99.90;;;;;;5072644;28;20020;-61
2022/07/21 09:55:07;;;;;;;14.43;8.85;;;19.10;99.90;;;;;;5072402;28;20021;-61
2022/07/21 09:57:33;;;;;;;16.58;9.32;;;19.00;99.90;;;;;;5072083;28;20044;-61
2022/07/21 09:59:59;;;;;;;17.85;9.98;;;19.00;99.90;;;;;;5072670;28;20028;-60
2022/07/21 10:02:26;;;;;;;24.08;11.10;;;18.90;99.90;;;;;;5072396;28;20040;-60
2022/07/21 10:04:58;;;;;;;20.33;11.90;;;18.80;99.90;;;;;;5072382;28;20105;-60
2022/07/21 10:07:25;;;;;;;19.75;10.35;;;18.80;99.90;;;;;;5072645;28;20040;-61
2022/07/21 10:09:51;;;;;;;18.92;10.25;;;18.80;99.90;;;;;;5070996;28;20127;-60
2022/07/21 10:12:17;;;;;;;15.15;9.32;;;18.70;99.90;;;;;;5072159;28;20025;-61
2022/07/21 10:14:43;;;;;;;19.55;9.90;;;18.70;99.90;;;;;;5071871;28;20024;-61
2022/07/21 10:17:09;;;;;;;24.52;10.20;;;18.80;99.90;;;;;;5072226;28;20028;-60
2022/07/21 10:19:44;;;;;;;21.48;9.80;;;18.80;99.90;;;;;;5072599;28;20032;-60
2022/07/21 10:22:23;;;;;;;23.77;9.95;;;18.80;99.90;;;;;;5071270;28;20032;-60
2022/07/21 10:24:49;;;;;;;19.08;10.45;;;18.80;99.90;;;;;;5071813;28;20032;-62
2022/07/21 10:27:15;;;;;;;21.42;9.88;;;18.80;99.90;;;;;;5071901;28;20107;-61
2022/07/21 10:30:00;;;;;;;20.77;9.40;;;19.00;99.90;;;;;;5071843;28;20105;-63
2022/07/21 10:32:32;;;;;;;18.48;9.80;;;19.10;99.90;;;;;;5072141;28;20021;-61
2022/07/21 10:35:00;;;;;;;17.88;9.27;;;19.30;99.90;;;;;;5070760;28;20028;-63
2022/07/21 10:37:40;;;;;;;18.80;9.55;;;19.60;99.90;;;;;;5071903;28;20052;-60
2022/07/21 10:40:26;;;;;;;18.70;8.75;;;19.60;99.90;;;;;;5070455;28;20035;-61
2022/07/21 10:42:57;;;;;;;15.77;8.82;;;19.70;99.90;;;;;;5071579;28;20435;-61
2022/07/21 10:45:31;;;;;;;17.00;8.55;;;19.80;99.90;;;;;;5070334;28;20036;-61
2022/07/21 10:47:57;;;;;;;15.30;8.88;;;19.90;99.90;;;;;;5071922;28;20067;-61
2022/07/21 10:50:33;;;;;;;16.65;8.70;;;20.00;99.90;;;;;;5071238;28;20440;-61
2022/07/21 10:53:13;;;;;;;16.85;8.52;;;20.20;99.90;;;;;;5071463;28;20081;-61
2022/07/21 10:55:47;;;;;;;12.63;7.80;;;20.50;99.90;;;;;;5071346;28;20366;-61
2022/07/21 10:58:23;;;;;;;15.27;6.97;;;20.70;99.90;;;;;;5071317;28;20045;-61
2022/07/21 11:01:01;;;;;;;15.95;7.45;;;20.90;99.90;;;;;;5070980;28;20098;-61
2022/07/21 11:03:33;;;;;;;15.85;7.35;;;21.00;99.90;;;;;;5071363;28;20481;-61
2022/07/21 11:06:24;;;;;;;16.20;6.60;;;21.00;99.90;;;;;;5070989;28;20068;-62
2022/07/21 11:09:06;;;;;;;16.67;7.05;;;20.80;99.90;;;;;;5071055;28;20374;-61
2022/07/21 11:11:34;;;;;;;15.35;7.45;;;20.60;99.90;;;;;;5069721;28;20031;-61
2022/07/21 11:14:08;;;;;;;12.90;6.38;;;20.60;99.90;;;;;;5070863;28;20062;-62
2022/07/21 11:16:39;;;;;;;13.43;6.45;;;20.40;99.90;;;;;;5070750;28;20028;-61
2022/07/21 11:19:06;;;;;;;8.00;6.45;;;20.40;99.90;;;;;;5071107;28;20028;-62
2022/07/21 11:21:31;;;;;;;11.95;6.60;;;20.40;99.90;;;;;;5070735;28;20128;-62
2022/07/21 11:23:57;;;;;;;11.68;6.72;;;20.30;99.90;;;;;;5070737;28;20107;-62
2022/07/21 11:26:26;;;;;;;10.95;6.47;;;20.20;99.90;;;;;;5070693;28;20033;-62
2022/07/21 11:29:05;;;;;;;18.33;7.65;;;20.20;99.90;;;;;;5070990;28;20469;-62
2022/07/21 11:31:32;;;;;;;14.30;6.78;;;20.30;99.90;;;;;;5071202;28;20021;-62
2022/07/21 11:33:57;;;;;;;10.18;5.82;;;20.30;99.90;;;;;;5070551;28;20032;-62
2022/07/21 11:36:31;;;;;;;16.10;6.65;;;20.10;99.90;;;;;;5070575;28;20028;-62
2022/07/21 11:39:05;;;;;;;17.35;6.47;;;19.90;99.90;;;;;;5070812;28;20078;-62
2022/07/21 11:41:31;;;;;;;13.10;6.68;;;19.80;99.90;;;;;;5070519;28;20037;-62
2022/07/21 11:43:57;;;;;;;16.05;6.20;;;19.80;99.90;;;;;;5070741;28;20021;-62
2022/07/21 11:46:23;;;;;;;17.88;6.47;;;19.90;99.90;;;;;;5070803;28;20507;-62
2022/07/21 11:49:00;;;;;;;15.05;6.63;;;19.80;99.90;;;;;;5070806;28;20474;-62
2022/07/21 11:51:26;;;;;;;18.08;6.90;;;19.90;99.90;;;;;;5070228;28;20024;-62
2022/07/21 11:53:51;;;;;;;17.75;6.50;;;19.80;99.90;;;;;;5074283;28;20023;-62
2022/07/21 11:56:17;;;;;;;17.70;6.82;;;19.90;99.90;;;;;;5074194;28;20082;-62
2022/07/21 11:58:43;;;;;;;15.82;6.22;;;20.00;99.90;;;;;;5074683;28;20048;-62
2022/07/21 12:01:09;;;;;;;15.05;6.15;;;20.00;99.90;;;;;;5074517;28;20425;-62
2022/07/21 12:03:49;;;;;;;14.30;5.78;;;20.20;99.90;;;;;;5074167;28;20029;-62
2022/07/21 12:06:15;;;;;;;14.65;5.72;;;20.40;99.90;;;;;;5074308;28;20489;-62
2022/07/21 12:08:43;;;;;;;15.35;5.55;;;20.70;99.90;;;;;;5074417;28;20545;-62
2022/07/21 12:11:12;;;;;;;17.45;6.32;;;21.00;99.90;;;;;;5074327;28;20077;-62
2022/07/21 12:13:54;;;;;;;13.77;5.75;;;20.90;99.90;;;;;;5074190;28;20046;-63
2022/07/21 12:16:20;;;;;;;15.07;5.63;;;21.00;99.90;;;;;;5074277;28;20393;-62
2022/07/21 12:18:45;;;;;;;16.50;5.38;;;20.90;99.90;;;;;;5074015;28;20029;-62
2022/07/21 12:21:11;;;;;;;10.10;5.05;;;20.80;99.90;;;;;;5074094;28;20044;-63
2022/07/21 12:23:37;;;;;;;16.75;5.07;;;20.80;99.90;;;;;;5074130;28;20021;-63
2022/07/21 12:26:03;;;;;;;11.00;5.05;;;20.60;99.90;;;;;;5074325;28;20025;-62
2022/07/21 12:28:52;;;;;;;13.13;4.80;;;20.90;99.90;;;;;;5074095;28;20470;-62
2022/07/21 12:31:20;;;;;;;10.45;4.20;;;21.10;99.90;;;;;;5072480;28;20396;-60
2022/07/21 12:33:47;;;;;;;16.98;4.65;;;21.10;99.90;;;;;;5073542;28;20020;-60
2022/07/21 12:36:13;;;;;;;17.48;5.43;;;21.10;99.90;;;;;;5072144;28;20032;-61
2022/07/21 12:38:50;;;;;;;13.77;4.65;;;21.30;99.90;;;;;;5073626;28;20470;-60